sensor_id;sensor_type;location;lat;lon;timestamp;P1;durP1;ratioP1;P2;durP2;ratioP2
2406;SDS011;37709;53.480;9.688;2023-04-25T00:01:46;12.67;;;5.23;;
2406;SDS011;37709;53.480;9.688;2023-04-25T00:04:14;10.43;;;4.50;;
2406;SDS011;37709;53.480;9.688;2023-04-25T00:06:41;10.20;;;4.87;;
2406;SDS011;37709;53.480;9.688;2023-04-25T00:09:08;9.57;;;4.50;;
2406;SDS011;37709;53.480;9.688;2023-04-25T00:11:37;11.60;;;4.57;;
2406;SDS011;37709;53.480;9.688;2023-04-25T00:14:05;12.47;;;5.60;;
2406;SDS011;37709;53.480;9.688;2023-04-25T00:16:33;13.10;;;5.30;;
2406;SDS011;37709;53.480;9.688;2023-04-25T00:19:01;8.23;;;4.53;;
2406;SDS011;37709;53.480;9.688;2023-04-25T00:21:29;13.83;;;5.43;;
2406;SDS011;37709;53.480;9.688;2023-04-25T00:23:58;16.23;;;6.27;;
2406;SDS011;37709;53.480;9.688;2023-04-25T00:26:26;14.70;;;5.63;;
2406;SDS011;37709;53.480;9.688;2023-04-25T00:28:53;15.13;;;5.83;;
2406;SDS011;37709;53.480;9.688;2023-04-25T00:31:21;18.27;;;5.40;;
2406;SDS011;37709;53.480;9.688;2023-04-25T00:33:48;15.83;;;6.10;;
2406;SDS011;37709;53.480;9.688;2023-04-25T00:36:15;22.57;;;5.80;;
2406;SDS011;37709;53.480;9.688;2023-04-25T00:38:43;17.27;;;6.20;;
2406;SDS011;37709;53.480;9.688;2023-04-25T00:41:11;16.17;;;5.57;;
2406;SDS011;37709;53.480;9.688;2023-04-25T00:43:38;20.30;;;4.07;;
2406;SDS011;37709;53.480;9.688;2023-04-25T00:46:07;17.40;;;6.00;;
2406;SDS011;37709;53.480;9.688;2023-04-25T00:48:34;17.50;;;5.70;;
2406;SDS011;37709;53.480;9.688;2023-04-25T00:51:01;15.23;;;4.73;;
2406;SDS011;37709;53.480;9.688;2023-04-25T00:53:29;16.70;;;5.53;;
2406;SDS011;37709;53.480;9.688;2023-04-25T00:55:58;20.03;;;5.00;;
2406;SDS011;37709;53.480;9.688;2023-04-25T00:58:26;16.50;;;6.17;;
2406;SDS011;37709;53.480;9.688;2023-04-25T01:00:53;13.33;;;4.80;;
2406;SDS011;37709;53.480;9.688;2023-04-25T01:03:22;16.20;;;5.20;;
2406;SDS011;37709;53.480;9.688;2023-04-25T01:05:51;20.90;;;5.47;;
2406;SDS011;37709;53.480;9.688;2023-04-25T01:08:18;16.70;;;5.07;;
2406;SDS011;37709;53.480;9.688;2023-04-25T01:10:50;15.70;;;5.43;;
2406;SDS011;37709;53.480;9.688;2023-04-25T01:13:17;14.70;;;5.23;;
2406;SDS011;37709;53.480;9.688;2023-04-25T01:15:44;12.63;;;5.20;;
2406;SDS011;37709;53.480;9.688;2023-04-25T01:18:12;19.90;;;5.87;;
2406;SDS011;37709;53.480;9.688;2023-04-25T01:20:39;18.27;;;5.60;;
2406;SDS011;37709;53.480;9.688;2023-04-25T01:23:08;23.77;;;5.53;;
2406;SDS011;37709;53.480;9.688;2023-04-25T01:25:36;13.60;;;4.97;;
2406;SDS011;37709;53.480;9.688;2023-04-25T01:28:04;18.27;;;5.67;;
2406;SDS011;37709;53.480;9.688;2023-04-25T01:30:32;18.97;;;6.10;;
2406;SDS011;37709;53.480;9.688;2023-04-25T01:32:59;17.93;;;5.50;;
2406;SDS011;37709;53.480;9.688;2023-04-25T01:35:28;16.00;;;5.20;;
2406;SDS011;37709;53.480;9.688;2023-04-25T01:37:55;22.67;;;5.40;;
2406;SDS011;37709;53.480;9.688;2023-04-25T01:40:23;21.43;;;5.90;;
2406;SDS011;37709;53.480;9.688;2023-04-25T01:42:51;17.03;;;4.97;;
2406;SDS011;37709;53.480;9.688;2023-04-25T01:45:20;19.40;;;5.13;;
2406;SDS011;37709;53.480;9.688;2023-04-25T01:47:48;25.10;;;6.40;;
2406;SDS011;37709;53.480;9.688;2023-04-25T01:50:17;11.60;;;4.83;;
2406;SDS011;37709;53.480;9.688;2023-04-25T01:52:45;20.87;;;6.57;;
2406;SDS011;37709;53.480;9.688;2023-04-25T01:55:14;13.87;;;5.27;;
2406;SDS011;37709;53.480;9.688;2023-04-25T01:57:57;16.30;;;7.20;;
2406;SDS011;37709;53.480;9.688;2023-04-25T02:00:43;18.80;;;5.47;;
2406;SDS011;37709;53.480;9.688;2023-04-25T02:03:11;22.57;;;5.27;;
2406;SDS011;37709;53.480;9.688;2023-04-25T02:05:39;17.80;;;4.63;;
2406;SDS011;37709;53.480;9.688;2023-04-25T02:08:09;13.93;;;4.50;;
2406;SDS011;37709;53.480;9.688;2023-04-25T02:10:36;14.70;;;4.30;;
2406;SDS011;37709;53.480;9.688;2023-04-25T02:13:16;15.90;;;4.70;;
2406;SDS011;37709;53.480;9.688;2023-04-25T02:16:00;19.87;;;4.90;;
2406;SDS011;37709;53.480;9.688;2023-04-25T02:18:29;24.13;;;4.90;;
2406;SDS011;37709;53.480;9.688;2023-04-25T02:21:01;19.37;;;5.17;;
2406;SDS011;37709;53.480;9.688;2023-04-25T02:23:29;12.60;;;4.90;;
2406;SDS011;37709;53.480;9.688;2023-04-25T02:25:59;17.40;;;5.90;;
2406;SDS011;37709;53.480;9.688;2023-04-25T02:28:26;12.80;;;5.10;;
2406;SDS011;37709;53.480;9.688;2023-04-25T02:33:47;14.63;;;5.63;;
2406;SDS011;37709;53.480;9.688;2023-04-25T02:36:15;19.53;;;5.77;;
2406;SDS011;37709;53.480;9.688;2023-04-25T02:38:42;12.20;;;5.00;;
2406;SDS011;37709;53.480;9.688;2023-04-25T02:41:10;18.53;;;5.73;;
2406;SDS011;37709;53.480;9.688;2023-04-25T02:43:37;20.23;;;5.40;;
2406;SDS011;37709;53.480;9.688;2023-04-25T02:46:05;20.90;;;6.00;;
2406;SDS011;37709;53.480;9.688;2023-04-25T02:48:33;11.83;;;4.80;;
2406;SDS011;37709;53.480;9.688;2023-04-25T02:51:00;14.33;;;5.30;;
2406;SDS011;37709;53.480;9.688;2023-04-25T02:53:27;11.63;;;4.90;;
2406;SDS011;37709;53.480;9.688;2023-04-25T02:55:55;16.70;;;4.50;;
2406;SDS011;37709;53.480;9.688;2023-04-25T02:58:25;18.33;;;5.27;;
2406;SDS011;37709;53.480;9.688;2023-04-25T03:00:53;16.97;;;5.60;;
2406;SDS011;37709;53.480;9.688;2023-04-25T03:03:21;20.83;;;4.50;;
2406;SDS011;37709;53.480;9.688;2023-04-25T03:05:50;19.87;;;5.23;;
2406;SDS011;37709;53.480;9.688;2023-04-25T03:08:23;20.67;;;5.57;;
2406;SDS011;37709;53.480;9.688;2023-04-25T03:10:53;14.00;;;4.50;;
2406;SDS011;37709;53.480;9.688;2023-04-25T03:13:22;10.80;;;4.37;;
2406;SDS011;37709;53.480;9.688;2023-04-25T03:15:50;19.47;;;5.00;;
2406;SDS011;37709;53.480;9.688;2023-04-25T03:18:18;25.90;;;5.50;;
2406;SDS011;37709;53.480;9.688;2023-04-25T03:20:46;19.00;;;5.10;;
2406;SDS011;37709;53.480;9.688;2023-04-25T03:23:13;10.33;;;4.23;;
2406;SDS011;37709;53.480;9.688;2023-04-25T03:25:42;7.70;;;3.70;;
2406;SDS011;37709;53.480;9.688;2023-04-25T03:28:09;13.40;;;4.00;;
2406;SDS011;37709;53.480;9.688;2023-04-25T03:30:37;15.17;;;4.77;;
2406;SDS011;37709;53.480;9.688;2023-04-25T03:33:04;18.30;;;5.00;;
2406;SDS011;37709;53.480;9.688;2023-04-25T03:35:32;16.73;;;4.17;;
2406;SDS011;37709;53.480;9.688;2023-04-25T03:38:00;11.83;;;3.63;;
2406;SDS011;37709;53.480;9.688;2023-04-25T03:40:32;15.33;;;4.70;;
2406;SDS011;37709;53.480;9.688;2023-04-25T03:43:08;12.30;;;4.73;;
2406;SDS011;37709;53.480;9.688;2023-04-25T03:45:36;11.20;;;4.80;;
2406;SDS011;37709;53.480;9.688;2023-04-25T03:48:04;12.73;;;4.00;;
2406;SDS011;37709;53.480;9.688;2023-04-25T03:50:32;13.93;;;4.10;;
2406;SDS011;37709;53.480;9.688;2023-04-25T03:52:59;10.60;;;4.13;;
2406;SDS011;37709;53.480;9.688;2023-04-25T03:55:30;12.00;;;5.17;;
2406;SDS011;37709;53.480;9.688;2023-04-25T03:57:57;12.30;;;3.73;;
2406;SDS011;37709;53.480;9.688;2023-04-25T04:00:25;17.63;;;4.40;;
2406;SDS011;37709;53.480;9.688;2023-04-25T04:02:53;11.57;;;4.70;;
2406;SDS011;37709;53.480;9.688;2023-04-25T04:05:21;15.40;;;3.87;;
2406;SDS011;37709;53.480;9.688;2023-04-25T04:07:53;9.90;;;3.77;;
2406;SDS011;37709;53.480;9.688;2023-04-25T04:10:21;9.93;;;3.73;;
2406;SDS011;37709;53.480;9.688;2023-04-25T04:12:49;11.57;;;3.13;;
2406;SDS011;37709;53.480;9.688;2023-04-25T04:15:16;13.93;;;4.63;;
2406;SDS011;37709;53.480;9.688;2023-04-25T04:17:45;11.47;;;3.87;;
2406;SDS011;37709;53.480;9.688;2023-04-25T04:20:13;10.87;;;3.80;;
2406;SDS011;37709;53.480;9.688;2023-04-25T04:22:41;7.90;;;3.30;;
2406;SDS011;37709;53.480;9.688;2023-04-25T04:25:11;13.70;;;3.47;;
2406;SDS011;37709;53.480;9.688;2023-04-25T04:27:57;11.60;;;3.93;;
2406;SDS011;37709;53.480;9.688;2023-04-25T04:30:57;10.23;;;2.90;;
2406;SDS011;37709;53.480;9.688;2023-04-25T04:33:25;12.80;;;4.07;;
2406;SDS011;37709;53.480;9.688;2023-04-25T04:36:00;12.80;;;4.40;;
2406;SDS011;37709;53.480;9.688;2023-04-25T04:38:28;8.30;;;3.00;;
2406;SDS011;37709;53.480;9.688;2023-04-25T04:40:59;12.80;;;3.87;;
2406;SDS011;37709;53.480;9.688;2023-04-25T04:43:39;9.33;;;2.87;;
2406;SDS011;37709;53.480;9.688;2023-04-25T04:46:13;10.80;;;3.67;;
2406;SDS011;37709;53.480;9.688;2023-04-25T04:48:54;15.10;;;3.83;;
2406;SDS011;37709;53.480;9.688;2023-04-25T04:54:35;11.03;;;3.30;;
2406;SDS011;37709;53.480;9.688;2023-04-25T04:57:22;10.43;;;3.30;;
2406;SDS011;37709;53.480;9.688;2023-04-25T05:00:11;7.20;;;3.27;;
2406;SDS011;37709;53.480;9.688;2023-04-25T05:03:01;13.63;;;4.73;;
2406;SDS011;37709;53.480;9.688;2023-04-25T05:05:47;9.67;;;2.80;;
2406;SDS011;37709;53.480;9.688;2023-04-25T05:08:32;11.10;;;2.90;;
2406;SDS011;37709;53.480;9.688;2023-04-25T05:11:12;7.87;;;2.87;;
2406;SDS011;37709;53.480;9.688;2023-04-25T05:14:03;10.70;;;4.13;;
2406;SDS011;37709;53.480;9.688;2023-04-25T05:16:46;17.57;;;3.13;;
2406;SDS011;37709;53.480;9.688;2023-04-25T05:19:22;10.90;;;3.37;;
2406;SDS011;37709;53.480;9.688;2023-04-25T05:22:10;8.47;;;3.07;;
2406;SDS011;37709;53.480;9.688;2023-04-25T05:24:50;11.27;;;3.00;;
2406;SDS011;37709;53.480;9.688;2023-04-25T05:27:41;5.67;;;2.07;;
2406;SDS011;37709;53.480;9.688;2023-04-25T05:30:24;7.10;;;2.43;;
2406;SDS011;37709;53.480;9.688;2023-04-25T05:33:01;7.67;;;2.43;;
2406;SDS011;37709;53.480;9.688;2023-04-25T05:35:29;13.70;;;3.80;;
2406;SDS011;37709;53.480;9.688;2023-04-25T05:37:56;5.37;;;2.70;;
2406;SDS011;37709;53.480;9.688;2023-04-25T05:40:38;11.10;;;3.70;;
2406;SDS011;37709;53.480;9.688;2023-04-25T05:43:15;11.03;;;3.47;;
2406;SDS011;37709;53.480;9.688;2023-04-25T05:46:08;5.33;;;2.43;;
2406;SDS011;37709;53.480;9.688;2023-04-25T05:48:51;4.60;;;2.10;;
2406;SDS011;37709;53.480;9.688;2023-04-25T05:51:35;9.93;;;2.57;;
2406;SDS011;37709;53.480;9.688;2023-04-25T05:54:15;7.37;;;2.50;;
2406;SDS011;37709;53.480;9.688;2023-04-25T05:56:43;6.97;;;2.70;;
2406;SDS011;37709;53.480;9.688;2023-04-25T05:59:10;10.93;;;2.20;;
2406;SDS011;37709;53.480;9.688;2023-04-25T06:01:37;10.33;;;3.30;;
2406;SDS011;37709;53.480;9.688;2023-04-25T06:04:04;8.53;;;2.80;;
2406;SDS011;37709;53.480;9.688;2023-04-25T06:06:33;8.40;;;2.60;;
2406;SDS011;37709;53.480;9.688;2023-04-25T06:09:00;9.70;;;3.20;;
2406;SDS011;37709;53.480;9.688;2023-04-25T06:11:27;6.83;;;2.60;;
2406;SDS011;37709;53.480;9.688;2023-04-25T06:13:55;12.30;;;3.30;;
2406;SDS011;37709;53.480;9.688;2023-04-25T06:16:22;14.43;;;3.00;;
2406;SDS011;37709;53.480;9.688;2023-04-25T06:18:53;11.67;;;3.53;;
2406;SDS011;37709;53.480;9.688;2023-04-25T06:21:20;10.17;;;3.70;;
2406;SDS011;37709;53.480;9.688;2023-04-25T06:23:50;10.13;;;3.40;;
2406;SDS011;37709;53.480;9.688;2023-04-25T06:26:21;12.90;;;2.93;;
2406;SDS011;37709;53.480;9.688;2023-04-25T06:28:51;9.97;;;2.60;;
2406;SDS011;37709;53.480;9.688;2023-04-25T06:31:19;13.33;;;3.90;;
2406;SDS011;37709;53.480;9.688;2023-04-25T06:33:48;9.00;;;2.57;;
2406;SDS011;37709;53.480;9.688;2023-04-25T06:36:15;10.63;;;3.70;;
2406;SDS011;37709;53.480;9.688;2023-04-25T06:38:46;11.37;;;2.93;;
2406;SDS011;37709;53.480;9.688;2023-04-25T06:41:13;6.03;;;2.43;;
2406;SDS011;37709;53.480;9.688;2023-04-25T06:43:41;15.43;;;2.67;;
2406;SDS011;37709;53.480;9.688;2023-04-25T06:46:28;9.37;;;3.40;;
2406;SDS011;37709;53.480;9.688;2023-04-25T06:48:57;6.07;;;2.67;;
2406;SDS011;37709;53.480;9.688;2023-04-25T06:51:24;8.60;;;3.10;;
2406;SDS011;37709;53.480;9.688;2023-04-25T06:53:55;10.33;;;3.40;;
2406;SDS011;37709;53.480;9.688;2023-04-25T06:56:28;8.20;;;2.93;;
2406;SDS011;37709;53.480;9.688;2023-04-25T06:59:05;5.40;;;2.40;;
2406;SDS011;37709;53.480;9.688;2023-04-25T07:01:35;6.13;;;2.30;;
2406;SDS011;37709;53.480;9.688;2023-04-25T07:04:09;6.27;;;2.50;;
2406;SDS011;37709;53.480;9.688;2023-04-25T07:06:42;3.77;;;2.03;;
2406;SDS011;37709;53.480;9.688;2023-04-25T07:09:11;9.97;;;2.50;;
2406;SDS011;37709;53.480;9.688;2023-04-25T07:11:40;9.40;;;3.10;;
2406;SDS011;37709;53.480;9.688;2023-04-25T07:14:08;6.40;;;3.03;;
2406;SDS011;37709;53.480;9.688;2023-04-25T07:16:35;5.73;;;3.13;;
2406;SDS011;37709;53.480;9.688;2023-04-25T07:19:02;9.43;;;2.33;;
2406;SDS011;37709;53.480;9.688;2023-04-25T07:21:30;4.90;;;2.20;;
2406;SDS011;37709;53.480;9.688;2023-04-25T07:24:00;6.53;;;2.30;;
2406;SDS011;37709;53.480;9.688;2023-04-25T07:26:31;10.13;;;2.27;;
2406;SDS011;37709;53.480;9.688;2023-04-25T07:29:31;4.70;;;1.50;;
2406;SDS011;37709;53.480;9.688;2023-04-25T07:31:59;5.27;;;1.80;;
2406;SDS011;37709;53.480;9.688;2023-04-25T07:34:27;3.30;;;1.30;;
2406;SDS011;37709;53.480;9.688;2023-04-25T07:36:55;3.20;;;1.20;;
2406;SDS011;37709;53.480;9.688;2023-04-25T07:39:26;5.53;;;1.30;;
2406;SDS011;37709;53.480;9.688;2023-04-25T07:41:54;7.07;;;2.60;;
2406;SDS011;37709;53.480;9.688;2023-04-25T07:44:27;5.83;;;1.70;;
2406;SDS011;37709;53.480;9.688;2023-04-25T07:46:54;7.83;;;1.80;;
2406;SDS011;37709;53.480;9.688;2023-04-25T07:49:24;4.60;;;1.20;;
2406;SDS011;37709;53.480;9.688;2023-04-25T07:51:54;2.33;;;1.23;;
2406;SDS011;37709;53.480;9.688;2023-04-25T07:54:22;3.20;;;1.20;;
2406;SDS011;37709;53.480;9.688;2023-04-25T07:56:57;4.43;;;1.50;;
2406;SDS011;37709;53.480;9.688;2023-04-25T07:59:29;4.73;;;1.63;;
2406;SDS011;37709;53.480;9.688;2023-04-25T08:02:00;5.43;;;1.30;;
2406;SDS011;37709;53.480;9.688;2023-04-25T08:04:28;5.43;;;1.30;;
2406;SDS011;37709;53.480;9.688;2023-04-25T08:07:01;3.77;;;1.37;;
2406;SDS011;37709;53.480;9.688;2023-04-25T08:09:34;2.47;;;1.20;;
2406;SDS011;37709;53.480;9.688;2023-04-25T08:12:06;4.03;;;1.40;;
2406;SDS011;37709;53.480;9.688;2023-04-25T08:14:34;5.03;;;1.80;;
2406;SDS011;37709;53.480;9.688;2023-04-25T08:17:06;6.40;;;1.43;;
2406;SDS011;37709;53.480;9.688;2023-04-25T08:19:39;2.70;;;1.17;;
2406;SDS011;37709;53.480;9.688;2023-04-25T08:25:21;6.17;;;1.80;;
2406;SDS011;37709;53.480;9.688;2023-04-25T08:27:49;5.03;;;1.70;;
2406;SDS011;37709;53.480;9.688;2023-04-25T08:30:19;5.10;;;1.50;;
2406;SDS011;37709;53.480;9.688;2023-04-25T08:32:48;9.10;;;1.43;;
2406;SDS011;37709;53.480;9.688;2023-04-25T08:35:26;5.40;;;1.90;;
2406;SDS011;37709;53.480;9.688;2023-04-25T08:37:53;2.80;;;1.60;;
2406;SDS011;37709;53.480;9.688;2023-04-25T08:40:22;4.90;;;1.93;;
2406;SDS011;37709;53.480;9.688;2023-04-25T08:43:00;5.70;;;1.80;;
2406;SDS011;37709;53.480;9.688;2023-04-25T08:45:31;7.57;;;1.93;;
2406;SDS011;37709;53.480;9.688;2023-04-25T08:48:00;4.43;;;2.20;;
2406;SDS011;37709;53.480;9.688;2023-04-25T08:53:25;3.73;;;1.23;;
2406;SDS011;37709;53.480;9.688;2023-04-25T08:55:56;5.80;;;1.50;;
2406;SDS011;37709;53.480;9.688;2023-04-25T08:58:24;4.40;;;1.27;;
2406;SDS011;37709;53.480;9.688;2023-04-25T09:00:52;2.80;;;1.17;;
2406;SDS011;37709;53.480;9.688;2023-04-25T09:03:22;3.50;;;1.30;;
2406;SDS011;37709;53.480;9.688;2023-04-25T09:05:51;4.63;;;2.50;;
2406;SDS011;37709;53.480;9.688;2023-04-25T09:08:18;2.50;;;1.27;;
2406;SDS011;37709;53.480;9.688;2023-04-25T09:10:45;3.73;;;1.60;;
2406;SDS011;37709;53.480;9.688;2023-04-25T09:13:13;3.10;;;1.50;;
2406;SDS011;37709;53.480;9.688;2023-04-25T09:16:18;6.90;;;1.60;;
2406;SDS011;37709;53.480;9.688;2023-04-25T09:19:20;2.83;;;1.23;;
2406;SDS011;37709;53.480;9.688;2023-04-25T09:22:16;8.67;;;3.00;;
2406;SDS011;37709;53.480;9.688;2023-04-25T09:24:47;8.20;;;2.13;;
2406;SDS011;37709;53.480;9.688;2023-04-25T09:27:21;5.93;;;1.60;;
2406;SDS011;37709;53.480;9.688;2023-04-25T09:29:56;2.60;;;1.43;;
2406;SDS011;37709;53.480;9.688;2023-04-25T09:32:31;5.20;;;1.83;;
2406;SDS011;37709;53.480;9.688;2023-04-25T09:34:59;4.50;;;2.03;;
2406;SDS011;37709;53.480;9.688;2023-04-25T09:37:29;3.07;;;1.50;;
2406;SDS011;37709;53.480;9.688;2023-04-25T09:40:15;5.10;;;1.23;;
2406;SDS011;37709;53.480;9.688;2023-04-25T09:42:54;4.33;;;1.40;;
2406;SDS011;37709;53.480;9.688;2023-04-25T09:45:23;4.00;;;1.30;;
2406;SDS011;37709;53.480;9.688;2023-04-25T09:47:50;5.10;;;1.33;;
2406;SDS011;37709;53.480;9.688;2023-04-25T09:50:26;2.90;;;1.20;;
2406;SDS011;37709;53.480;9.688;2023-04-25T09:53:03;5.57;;;1.57;;
2406;SDS011;37709;53.480;9.688;2023-04-25T09:56:03;3.30;;;1.30;;
2406;SDS011;37709;53.480;9.688;2023-04-25T09:58:33;3.17;;;1.20;;
2406;SDS011;37709;53.480;9.688;2023-04-25T10:01:03;5.07;;;1.20;;
2406;SDS011;37709;53.480;9.688;2023-04-25T10:03:40;4.90;;;1.50;;
2406;SDS011;37709;53.480;9.688;2023-04-25T10:06:27;6.10;;;1.60;;
2406;SDS011;37709;53.480;9.688;2023-04-25T10:08:55;3.83;;;1.40;;
2406;SDS011;37709;53.480;9.688;2023-04-25T10:11:24;3.90;;;1.57;;
2406;SDS011;37709;53.480;9.688;2023-04-25T10:13:52;3.70;;;1.57;;
2406;SDS011;37709;53.480;9.688;2023-04-25T10:16:20;6.13;;;1.50;;
2406;SDS011;37709;53.480;9.688;2023-04-25T10:18:48;8.63;;;1.87;;
2406;SDS011;37709;53.480;9.688;2023-04-25T10:21:17;5.30;;;1.60;;
2406;SDS011;37709;53.480;9.688;2023-04-25T10:23:45;3.40;;;1.07;;
2406;SDS011;37709;53.480;9.688;2023-04-25T10:26:13;8.93;;;1.93;;
2406;SDS011;37709;53.480;9.688;2023-04-25T10:29:00;5.33;;;1.40;;
2406;SDS011;37709;53.480;9.688;2023-04-25T10:31:31;4.37;;;1.50;;
2406;SDS011;37709;53.480;9.688;2023-04-25T10:34:00;3.27;;;1.40;;
2406;SDS011;37709;53.480;9.688;2023-04-25T10:36:30;5.13;;;1.47;;
2406;SDS011;37709;53.480;9.688;2023-04-25T10:39:03;3.63;;;1.30;;
2406;SDS011;37709;53.480;9.688;2023-04-25T10:42:19;7.20;;;1.70;;
2406;SDS011;37709;53.480;9.688;2023-04-25T10:44:28;6.60;;;1.60;;
2406;SDS011;37709;53.480;9.688;2023-04-25T10:46:57;3.80;;;1.43;;
2406;SDS011;37709;53.480;9.688;2023-04-25T10:52:10;4.00;;;1.30;;
2406;SDS011;37709;53.480;9.688;2023-04-25T10:54:49;4.10;;;1.87;;
2406;SDS011;37709;53.480;9.688;2023-04-25T10:57:32;4.03;;;1.37;;
2406;SDS011;37709;53.480;9.688;2023-04-25T11:00:12;2.60;;;1.20;;
2406;SDS011;37709;53.480;9.688;2023-04-25T11:02:51;3.50;;;1.20;;
2406;SDS011;37709;53.480;9.688;2023-04-25T11:08:00;3.63;;;1.00;;
2406;SDS011;37709;53.480;9.688;2023-04-25T11:10:34;2.67;;;1.30;;
2406;SDS011;37709;53.480;9.688;2023-04-25T11:13:05;4.30;;;1.20;;
2406;SDS011;37709;53.480;9.688;2023-04-25T11:15:32;5.13;;;1.30;;
2406;SDS011;37709;53.480;9.688;2023-04-25T11:17:59;6.50;;;1.70;;
2406;SDS011;37709;53.480;9.688;2023-04-25T11:20:27;5.23;;;0.97;;
2406;SDS011;37709;53.480;9.688;2023-04-25T11:22:57;4.20;;;1.50;;
2406;SDS011;37709;53.480;9.688;2023-04-25T11:25:26;3.20;;;1.00;;
2406;SDS011;37709;53.480;9.688;2023-04-25T11:27:54;4.10;;;1.60;;
2406;SDS011;37709;53.480;9.688;2023-04-25T11:30:24;3.57;;;1.00;;
2406;SDS011;37709;53.480;9.688;2023-04-25T11:32:52;2.40;;;1.27;;
2406;SDS011;37709;53.480;9.688;2023-04-25T11:35:20;2.40;;;1.17;;
2406;SDS011;37709;53.480;9.688;2023-04-25T11:37:50;3.50;;;1.10;;
2406;SDS011;37709;53.480;9.688;2023-04-25T11:40:18;4.77;;;1.03;;
2406;SDS011;37709;53.480;9.688;2023-04-25T11:42:46;4.73;;;1.50;;
2406;SDS011;37709;53.480;9.688;2023-04-25T11:45:13;2.30;;;1.10;;
2406;SDS011;37709;53.480;9.688;2023-04-25T11:47:41;3.20;;;1.60;;
2406;SDS011;37709;53.480;9.688;2023-04-25T11:50:09;3.57;;;1.30;;
2406;SDS011;37709;53.480;9.688;2023-04-25T11:52:40;4.57;;;1.40;;
2406;SDS011;37709;53.480;9.688;2023-04-25T11:55:10;2.70;;;1.00;;
2406;SDS011;37709;53.480;9.688;2023-04-25T11:57:41;5.63;;;1.40;;
2406;SDS011;37709;53.480;9.688;2023-04-25T12:02:45;4.90;;;1.20;;
2406;SDS011;37709;53.480;9.688;2023-04-25T12:05:14;2.40;;;1.10;;
2406;SDS011;37709;53.480;9.688;2023-04-25T12:07:57;2.60;;;1.50;;
2406;SDS011;37709;53.480;9.688;2023-04-25T12:10:25;4.07;;;1.67;;
2406;SDS011;37709;53.480;9.688;2023-04-25T12:12:53;2.30;;;1.13;;
2406;SDS011;37709;53.480;9.688;2023-04-25T12:15:24;2.70;;;1.23;;
2406;SDS011;37709;53.480;9.688;2023-04-25T12:17:52;4.10;;;1.23;;
2406;SDS011;37709;53.480;9.688;2023-04-25T12:20:25;3.17;;;0.90;;
2406;SDS011;37709;53.480;9.688;2023-04-25T12:22:53;2.23;;;0.90;;
2406;SDS011;37709;53.480;9.688;2023-04-25T12:28:17;2.90;;;1.00;;
2406;SDS011;37709;53.480;9.688;2023-04-25T12:33:28;2.30;;;1.07;;
2406;SDS011;37709;53.480;9.688;2023-04-25T12:36:03;4.33;;;1.70;;
2406;SDS011;37709;53.480;9.688;2023-04-25T12:38:36;4.17;;;1.20;;
2406;SDS011;37709;53.480;9.688;2023-04-25T12:41:05;4.43;;;1.27;;
2406;SDS011;37709;53.480;9.688;2023-04-25T12:43:33;2.20;;;1.20;;
2406;SDS011;37709;53.480;9.688;2023-04-25T12:46:01;4.33;;;1.30;;
2406;SDS011;37709;53.480;9.688;2023-04-25T12:48:28;4.63;;;1.77;;
2406;SDS011;37709;53.480;9.688;2023-04-25T12:50:56;3.30;;;1.60;;
2406;SDS011;37709;53.480;9.688;2023-04-25T12:53:23;4.40;;;1.40;;
2406;SDS011;37709;53.480;9.688;2023-04-25T12:55:51;2.53;;;1.40;;
2406;SDS011;37709;53.480;9.688;2023-04-25T12:58:18;5.20;;;1.50;;
2406;SDS011;37709;53.480;9.688;2023-04-25T13:00:46;2.80;;;1.27;;
2406;SDS011;37709;53.480;9.688;2023-04-25T13:03:14;2.47;;;0.87;;
2406;SDS011;37709;53.480;9.688;2023-04-25T13:05:42;2.83;;;1.30;;
2406;SDS011;37709;53.480;9.688;2023-04-25T13:08:09;4.77;;;1.50;;
2406;SDS011;37709;53.480;9.688;2023-04-25T13:10:36;3.50;;;1.40;;
2406;SDS011;37709;53.480;9.688;2023-04-25T13:13:06;3.43;;;1.50;;
2406;SDS011;37709;53.480;9.688;2023-04-25T13:15:33;3.90;;;1.47;;
2406;SDS011;37709;53.480;9.688;2023-04-25T13:18:00;2.43;;;1.23;;
2406;SDS011;37709;53.480;9.688;2023-04-25T13:20:28;6.93;;;1.63;;
2406;SDS011;37709;53.480;9.688;2023-04-25T13:22:55;3.67;;;1.03;;
2406;SDS011;37709;53.480;9.688;2023-04-25T13:25:22;3.37;;;1.53;;
2406;SDS011;37709;53.480;9.688;2023-04-25T13:27:50;2.67;;;0.93;;
2406;SDS011;37709;53.480;9.688;2023-04-25T13:30:17;4.30;;;1.20;;
2406;SDS011;37709;53.480;9.688;2023-04-25T13:32:44;3.60;;;1.37;;
2406;SDS011;37709;53.480;9.688;2023-04-25T13:35:13;3.83;;;1.40;;
2406;SDS011;37709;53.480;9.688;2023-04-25T13:37:43;1.90;;;1.10;;
2406;SDS011;37709;53.480;9.688;2023-04-25T13:40:10;1.93;;;1.20;;
2406;SDS011;37709;53.480;9.688;2023-04-25T13:42:38;4.27;;;1.63;;
2406;SDS011;37709;53.480;9.688;2023-04-25T13:45:06;4.20;;;1.47;;
2406;SDS011;37709;53.480;9.688;2023-04-25T13:47:37;4.13;;;1.43;;
2406;SDS011;37709;53.480;9.688;2023-04-25T13:50:04;3.37;;;0.93;;
2406;SDS011;37709;53.480;9.688;2023-04-25T13:52:32;3.67;;;1.30;;
2406;SDS011;37709;53.480;9.688;2023-04-25T13:55:00;2.73;;;0.80;;
2406;SDS011;37709;53.480;9.688;2023-04-25T13:57:33;2.60;;;1.00;;
2406;SDS011;37709;53.480;9.688;2023-04-25T14:00:04;2.87;;;1.03;;
2406;SDS011;37709;53.480;9.688;2023-04-25T14:02:35;5.93;;;1.50;;
2406;SDS011;37709;53.480;9.688;2023-04-25T14:05:03;4.77;;;1.60;;
2406;SDS011;37709;53.480;9.688;2023-04-25T14:07:33;4.40;;;1.30;;
2406;SDS011;37709;53.480;9.688;2023-04-25T14:10:02;1.83;;;0.90;;
2406;SDS011;37709;53.480;9.688;2023-04-25T14:12:31;4.77;;;1.60;;
2406;SDS011;37709;53.480;9.688;2023-04-25T14:14:59;4.67;;;1.40;;
2406;SDS011;37709;53.480;9.688;2023-04-25T14:17:26;3.03;;;1.27;;
2406;SDS011;37709;53.480;9.688;2023-04-25T14:19:54;4.40;;;1.37;;
2406;SDS011;37709;53.480;9.688;2023-04-25T14:22:21;4.60;;;1.30;;
2406;SDS011;37709;53.480;9.688;2023-04-25T14:24:48;2.77;;;1.53;;
2406;SDS011;37709;53.480;9.688;2023-04-25T14:27:16;3.53;;;1.40;;
2406;SDS011;37709;53.480;9.688;2023-04-25T14:29:43;2.90;;;1.10;;
2406;SDS011;37709;53.480;9.688;2023-04-25T14:32:10;5.20;;;1.40;;
2406;SDS011;37709;53.480;9.688;2023-04-25T14:34:37;4.23;;;1.40;;
2406;SDS011;37709;53.480;9.688;2023-04-25T14:37:04;3.50;;;1.20;;
2406;SDS011;37709;53.480;9.688;2023-04-25T14:39:32;2.83;;;1.07;;
2406;SDS011;37709;53.480;9.688;2023-04-25T14:41:59;4.50;;;1.70;;
2406;SDS011;37709;53.480;9.688;2023-04-25T14:44:26;3.67;;;1.77;;
2406;SDS011;37709;53.480;9.688;2023-04-25T14:46:54;3.40;;;1.30;;
2406;SDS011;37709;53.480;9.688;2023-04-25T14:49:22;2.73;;;1.47;;
2406;SDS011;37709;53.480;9.688;2023-04-25T14:51:49;4.50;;;1.03;;
2406;SDS011;37709;53.480;9.688;2023-04-25T14:54:18;4.43;;;1.43;;
2406;SDS011;37709;53.480;9.688;2023-04-25T14:56:45;4.50;;;1.53;;
2406;SDS011;37709;53.480;9.688;2023-04-25T14:59:12;5.30;;;1.73;;
2406;SDS011;37709;53.480;9.688;2023-04-25T15:01:40;4.83;;;1.53;;
2406;SDS011;37709;53.480;9.688;2023-04-25T15:04:08;2.53;;;1.50;;
2406;SDS011;37709;53.480;9.688;2023-04-25T15:06:35;3.93;;;1.20;;
2406;SDS011;37709;53.480;9.688;2023-04-25T15:09:02;3.77;;;1.47;;
2406;SDS011;37709;53.480;9.688;2023-04-25T15:11:30;2.67;;;1.10;;
2406;SDS011;37709;53.480;9.688;2023-04-25T15:13:57;6.00;;;1.60;;
2406;SDS011;37709;53.480;9.688;2023-04-25T15:16:25;4.50;;;1.60;;
2406;SDS011;37709;53.480;9.688;2023-04-25T15:18:52;4.10;;;1.30;;
2406;SDS011;37709;53.480;9.688;2023-04-25T15:21:19;5.80;;;1.47;;
2406;SDS011;37709;53.480;9.688;2023-04-25T15:23:47;3.90;;;1.30;;
2406;SDS011;37709;53.480;9.688;2023-04-25T15:26:15;4.30;;;1.50;;
2406;SDS011;37709;53.480;9.688;2023-04-25T15:31:36;6.30;;;1.90;;
2406;SDS011;37709;53.480;9.688;2023-04-25T15:34:04;7.70;;;1.90;;
2406;SDS011;37709;53.480;9.688;2023-04-25T15:36:32;3.53;;;1.60;;
2406;SDS011;37709;53.480;9.688;2023-04-25T15:38:59;4.47;;;1.60;;
2406;SDS011;37709;53.480;9.688;2023-04-25T15:41:27;4.23;;;1.83;;
2406;SDS011;37709;53.480;9.688;2023-04-25T15:43:54;3.83;;;1.30;;
2406;SDS011;37709;53.480;9.688;2023-04-25T15:46:22;4.37;;;1.10;;